China Lake, California
Current Conditions -  °F | °C
As of 5:56 PM on Monday 20 Oct 2014 (Local Time) from KNID Reporting Station
Broken Clouds Broken Clouds  
Wind Chill: 82°   Ceiling: 18000
Heat Index: 82°   Visibility: 10mi
Dew Point: 34°   Wind: 10mph
Humidity: 18%   Direction: 220°SW
Pressure: 29.81"   Gusts: 24mph
Location:  35.68°N, 117.68°W
Report Text: KNID 210056Z 22009G21KT 10SM BKN180 BKN270 28/01 A2981 RMK AO2 SLP081 T02780011 $
Loading
Personal Weather Stations






























Interactive Weather Map
Tropical Storm Tracking
New forecast layout! Learn more

10-Day Weather Forecast

Advertisements
Track Severe Weather on mobile